createdAt,value
2017-10-26T00:00:40.640Z,5
2017-10-26T00:01:43.406Z,5.1
2017-10-26T00:02:45.836Z,5
2017-10-26T00:03:48.263Z,5
2017-10-26T00:04:51.057Z,5.1
2017-10-26T00:05:53.838Z,5.1
2017-10-26T00:06:56.272Z,5.1
2017-10-26T00:07:58.688Z,5
2017-10-26T00:09:01.114Z,5.2
2017-10-26T00:10:03.544Z,5
2017-10-26T00:11:05.965Z,5
2017-10-26T00:12:08.385Z,5
2017-10-26T00:13:10.821Z,5
2017-10-26T00:14:13.234Z,5.1
2017-10-26T00:15:15.680Z,5.1
2017-10-26T00:16:18.102Z,5
2017-10-26T00:17:20.529Z,5.1
2017-10-26T00:18:22.960Z,5
2017-10-26T00:19:25.736Z,5.1
2017-10-26T00:20:28.164Z,5.1
2017-10-26T00:21:30.589Z,5.1
2017-10-26T00:22:33.356Z,5.1
2017-10-26T00:23:35.778Z,5.1
2017-10-26T00:24:38.213Z,5
2017-10-26T00:25:41.016Z,5.1
2017-10-26T00:26:43.428Z,5.1
2017-10-26T00:27:45.857Z,5.1
2017-10-26T00:28:48.277Z,5.1
2017-10-26T00:29:50.713Z,5
2017-10-26T00:30:53.153Z,5
2017-10-26T00:31:55.576Z,5.1
2017-10-26T00:32:58.006Z,5.1
2017-10-26T00:34:00.435Z,5
2017-10-26T00:35:02.877Z,5
2017-10-26T00:36:05.303Z,5.1
2017-10-26T00:37:07.728Z,5.1
2017-10-26T00:38:10.149Z,5.2
2017-10-26T00:39:12.575Z,5.1
2017-10-26T00:40:15.011Z,5
2017-10-26T00:41:17.427Z,5.1
2017-10-26T00:42:19.866Z,5
2017-10-26T00:43:22.286Z,5.1
2017-10-26T00:44:24.719Z,5.1
2017-10-26T00:45:27.149Z,5
2017-10-26T00:46:29.578Z,5
2017-10-26T00:47:32.011Z,5.2
2017-10-26T00:48:34.420Z,5
2017-10-26T00:49:37.219Z,5.1
2017-10-26T00:50:39.645Z,5
2017-10-26T00:51:42.067Z,5.1
2017-10-26T00:52:44.496Z,5.1
2017-10-26T00:53:46.924Z,5.1
2017-10-26T00:54:49.709Z,5.2
2017-10-26T00:55:52.148Z,5
2017-10-26T00:56:54.573Z,5.1
2017-10-26T00:57:57.014Z,5.1
2017-10-26T00:58:59.443Z,5.1
2017-10-26T01:00:01.872Z,5.2
2017-10-26T01:01:04.302Z,5.1
2017-10-26T01:02:07.089Z,5.1
2017-10-26T01:03:09.510Z,5
2017-10-26T01:04:11.940Z,5.1
2017-10-26T01:05:14.733Z,5.1
2017-10-26T01:06:17.164Z,5.1
2017-10-26T01:07:19.596Z,5
2017-10-26T01:08:22.028Z,5.1
2017-10-26T01:09:24.445Z,5.1
2017-10-26T01:10:27.223Z,5.1
2017-10-26T01:11:29.661Z,5
2017-10-26T01:12:32.078Z,5.1
2017-10-26T01:13:34.885Z,5
2017-10-26T01:14:37.325Z,5
2017-10-26T01:15:40.103Z,5.1
2017-10-26T01:16:42.534Z,5.1
2017-10-26T01:17:45.309Z,5.1
2017-10-26T01:18:48.088Z,5
2017-10-26T01:19:50.521Z,5.1
2017-10-26T01:20:53.295Z,5
2017-10-26T01:21:55.717Z,5.1
2017-10-26T01:22:58.165Z,5.1
2017-10-26T01:24:00.944Z,5.1
2017-10-26T01:25:03.740Z,5
2017-10-26T01:26:06.527Z,5
2017-10-26T01:27:08.953Z,5.1
2017-10-26T01:28:11.389Z,5
2017-10-26T01:29:13.823Z,5.1
2017-10-26T01:30:16.242Z,5.1
2017-10-26T01:31:18.668Z,5
2017-10-26T01:32:21.089Z,5.1
2017-10-26T01:33:23.526Z,5
2017-10-26T01:34:25.949Z,5.1
2017-10-26T01:35:28.373Z,5.1
2017-10-26T01:36:30.809Z,5.1
2017-10-26T01:37:33.590Z,5.1
2017-10-26T01:38:36.025Z,5
2017-10-26T01:39:38.459Z,5
2017-10-26T01:40:40.868Z,5.1
2017-10-26T01:41:43.304Z,5
2017-10-26T01:42:45.725Z,5
2017-10-26T01:43:48.161Z,5.1
2017-10-26T01:44:50.579Z,5.1
2017-10-26T01:45:53.014Z,5
2017-10-26T01:46:55.428Z,5.1
2017-10-26T01:47:57.858Z,5
2017-10-26T01:49:00.287Z,5
2017-10-26T01:50:02.720Z,5.1
2017-10-26T01:51:05.165Z,5
2017-10-26T01:52:07.596Z,5.1
2017-10-26T01:53:10.026Z,5
2017-10-26T01:54:12.471Z,5.1
2017-10-26T01:55:14.883Z,5.1
2017-10-26T01:56:17.305Z,5.1
2017-10-26T01:57:19.734Z,5
2017-10-26T01:58:22.156Z,5.1
2017-10-26T01:59:24.585Z,5.1
2017-10-26T02:00:27.369Z,5.1
2017-10-26T02:01:29.790Z,5.1
2017-10-26T02:02:32.577Z,5.1
2017-10-26T02:03:35.007Z,5.1
2017-10-26T02:04:37.424Z,5.1
2017-10-26T02:05:39.856Z,5.1
2017-10-26T02:06:42.300Z,5.1
2017-10-26T02:07:44.721Z,5.1
2017-10-26T02:08:47.155Z,5.1
2017-10-26T02:09:49.572Z,5
2017-10-26T02:10:52.007Z,5
2017-10-26T02:11:54.430Z,5.1
2017-10-26T02:12:56.858Z,5.1
2017-10-26T02:13:59.278Z,5.1
2017-10-26T02:15:01.711Z,5.1
2017-10-26T02:16:04.148Z,5.1
2017-10-26T02:17:06.572Z,5
2017-10-26T02:18:09.008Z,5
2017-10-26T02:19:11.437Z,5.1
2017-10-26T02:20:13.864Z,5
2017-10-26T02:21:16.304Z,5.1
2017-10-26T02:22:18.727Z,5.1
2017-10-26T02:23:21.142Z,5
2017-10-26T02:24:23.959Z,5.1
2017-10-26T02:25:26.390Z,5.1
2017-10-26T02:26:28.811Z,5
2017-10-26T02:27:31.247Z,5
2017-10-26T02:28:33.655Z,5.1
2017-10-26T02:29:36.089Z,5
2017-10-26T02:30:38.526Z,5.1
2017-10-26T02:31:40.953Z,5.1
2017-10-26T02:32:43.385Z,5.1
2017-10-26T02:33:46.166Z,5.1
2017-10-26T02:34:48.960Z,5
2017-10-26T02:35:51.398Z,5.1
2017-10-26T02:36:53.845Z,5
2017-10-26T02:37:56.249Z,5
2017-10-26T02:38:59.030Z,5
2017-10-26T02:40:01.834Z,5.1
2017-10-26T02:41:04.264Z,5
2017-10-26T02:42:06.687Z,5
2017-10-26T02:43:09.122Z,5
2017-10-26T02:44:11.557Z,5.1
2017-10-26T02:45:13.969Z,5
2017-10-26T02:46:16.400Z,5.2
2017-10-26T02:47:18.830Z,5
2017-10-26T02:48:21.247Z,5.1
2017-10-26T02:49:23.670Z,5.1
2017-10-26T02:50:26.097Z,5
2017-10-26T02:51:28.519Z,5.1
2017-10-26T02:52:30.948Z,5
2017-10-26T02:53:33.379Z,5
2017-10-26T02:54:35.796Z,5
2017-10-26T02:55:38.230Z,5
2017-10-26T02:56:40.660Z,5
2017-10-26T02:57:43.440Z,5.2
2017-10-26T02:58:45.870Z,5.1
2017-10-26T02:59:48.286Z,5
2017-10-26T03:00:50.709Z,5.1
2017-10-26T03:01:53.150Z,5.1
2017-10-26T03:02:55.564Z,5.1
2017-10-26T03:03:57.997Z,5
2017-10-26T03:05:00.786Z,5.1
2017-10-26T03:06:03.215Z,5.1
2017-10-26T03:07:05.641Z,5.1
2017-10-26T03:08:08.076Z,5.1
2017-10-26T03:09:10.488Z,5
2017-10-26T03:10:12.908Z,5.1
2017-10-26T03:11:15.346Z,5
2017-10-26T03:12:17.779Z,5.1
2017-10-26T03:13:20.199Z,5.1
2017-10-26T03:14:22.630Z,5
2017-10-26T03:15:25.063Z,5.1
2017-10-26T03:16:27.484Z,5.1
2017-10-26T03:17:29.911Z,5
2017-10-26T03:18:32.333Z,5.1
2017-10-26T03:19:34.753Z,5.1
2017-10-26T03:20:37.206Z,5.1
2017-10-26T03:21:39.611Z,5
2017-10-26T03:22:42.046Z,5
2017-10-26T03:23:44.476Z,5
2017-10-26T03:24:46.900Z,5
2017-10-26T03:25:49.345Z,5
2017-10-26T03:26:52.122Z,5
2017-10-26T03:27:54.541Z,5.1
2017-10-26T03:28:56.974Z,5.1
2017-10-26T03:29:59.402Z,5
2017-10-26T03:31:01.842Z,5.1
2017-10-26T03:32:04.270Z,5
2017-10-26T03:33:06.690Z,5
2017-10-26T03:34:09.122Z,5
2017-10-26T03:35:11.553Z,5
2017-10-26T03:36:13.969Z,5
2017-10-26T03:37:16.400Z,5.1
2017-10-26T03:38:18.822Z,5.1
2017-10-26T03:39:21.258Z,5.1
2017-10-26T03:40:23.684Z,5.1
2017-10-26T03:41:26.484Z,5.1
2017-10-26T03:42:28.913Z,5.1
2017-10-26T03:43:31.343Z,5.1
2017-10-26T03:44:33.766Z,5.1
2017-10-26T03:45:36.200Z,5
2017-10-26T03:46:38.627Z,5
2017-10-26T03:47:41.048Z,5.1
2017-10-26T03:48:43.473Z,5
2017-10-26T03:49:45.905Z,5.1
2017-10-26T03:50:48.329Z,5
2017-10-26T03:51:50.752Z,5
2017-10-26T03:52:53.176Z,5
2017-10-26T03:53:55.948Z,5.1
2017-10-26T03:54:58.375Z,5
2017-10-26T03:56:00.809Z,5.1
2017-10-26T03:57:03.237Z,5
2017-10-26T03:58:05.673Z,5.1
2017-10-26T03:59:08.088Z,5.1
2017-10-26T04:00:10.529Z,5
2017-10-26T04:01:12.957Z,5.1
2017-10-26T04:02:15.379Z,5.1
2017-10-26T04:03:17.807Z,5.1
2017-10-26T04:04:20.227Z,5.1
2017-10-26T04:05:22.651Z,5
2017-10-26T04:06:25.445Z,5
2017-10-26T04:07:27.860Z,5
2017-10-26T04:08:30.289Z,5.1
2017-10-26T04:09:32.729Z,5
2017-10-26T04:10:35.142Z,5.1
2017-10-26T04:11:37.581Z,5
2017-10-26T04:12:40.002Z,5.1
2017-10-26T04:13:42.427Z,5.1
2017-10-26T04:14:44.846Z,5.1
2017-10-26T04:15:47.276Z,5
2017-10-26T04:16:49.694Z,5.2
2017-10-26T04:17:52.134Z,5.1
2017-10-26T04:18:54.559Z,5.1
2017-10-26T04:19:56.982Z,5.1
2017-10-26T04:20:59.415Z,5
2017-10-26T04:22:01.851Z,5
2017-10-26T04:23:04.271Z,5.1
2017-10-26T04:24:06.698Z,5.1
2017-10-26T04:25:09.132Z,5.2
2017-10-26T04:26:11.566Z,5.1
2017-10-26T04:27:13.994Z,5.1
2017-10-26T04:28:16.780Z,5.1
2017-10-26T04:29:19.199Z,5.1
2017-10-26T04:30:21.627Z,5.1
2017-10-26T04:31:24.052Z,5
2017-10-26T04:32:26.847Z,5
2017-10-26T04:33:29.267Z,5.1
2017-10-26T04:34:32.042Z,5
2017-10-26T04:35:34.475Z,5.1
2017-10-26T04:36:36.903Z,5.1
2017-10-26T04:37:39.337Z,5.2
2017-10-26T04:38:41.768Z,5.1
2017-10-26T04:39:44.185Z,5.2
2017-10-26T04:40:46.616Z,5.1
2017-10-26T04:41:49.040Z,5.1
2017-10-26T04:42:51.456Z,5.1
2017-10-26T04:43:53.906Z,5
2017-10-26T04:44:56.329Z,5.1
2017-10-26T04:45:58.754Z,5.1
2017-10-26T04:47:01.189Z,5.1
2017-10-26T04:48:03.975Z,5.1
2017-10-26T04:49:06.577Z,5.1
2017-10-26T04:50:09.017Z,5.1
2017-10-26T04:51:11.789Z,5.1
2017-10-26T04:52:14.211Z,5.1
2017-10-26T04:53:16.651Z,5.1
2017-10-26T04:54:19.082Z,5
2017-10-26T04:55:21.516Z,5.1
2017-10-26T04:56:23.939Z,5.1
2017-10-26T04:57:26.376Z,5.1
2017-10-26T04:58:29.171Z,5.1
2017-10-26T04:59:31.593Z,5.1
2017-10-26T05:00:34.018Z,5.1
2017-10-26T05:01:36.447Z,5.1
2017-10-26T05:02:38.878Z,5.1
2017-10-26T05:03:41.658Z,5.1
2017-10-26T05:04:44.099Z,5.1
2017-10-26T05:05:46.511Z,5.1
2017-10-26T05:06:48.945Z,5.1
2017-10-26T05:07:51.384Z,5.1
2017-10-26T05:08:53.817Z,5.2
2017-10-26T05:09:56.233Z,5.1
2017-10-26T05:10:58.666Z,5.1
2017-10-26T05:12:01.095Z,5.2
2017-10-26T05:13:03.528Z,5.1
2017-10-26T05:14:05.998Z,5.2
2017-10-26T05:15:08.455Z,5.1
2017-10-26T05:16:10.883Z,5.1
2017-10-26T05:17:13.328Z,5.1
2017-10-26T05:18:15.756Z,5.1
2017-10-26T05:19:18.182Z,5.1
2017-10-26T05:20:20.610Z,5.1
2017-10-26T05:21:23.036Z,5.1
2017-10-26T05:22:25.463Z,5.2
2017-10-26T05:23:27.888Z,5.1
2017-10-26T05:24:40.927Z,5.1
2017-10-26T05:25:45.230Z,5
2017-10-26T05:26:47.655Z,5.1
2017-10-26T05:27:50.084Z,5
2017-10-26T05:28:52.506Z,5.1
2017-10-26T05:29:55.805Z,5.2
2017-10-26T05:30:58.291Z,5.1
2017-10-26T05:32:00.739Z,5.2
2017-10-26T05:33:03.164Z,5.1
2017-10-26T05:34:05.583Z,5.2
2017-10-26T05:35:08.393Z,5.1
2017-10-26T05:36:10.818Z,5.1
2017-10-26T05:37:13.242Z,5.2
2017-10-26T05:38:15.667Z,5.1
2017-10-26T05:39:18.112Z,5.1
2017-10-26T05:40:20.533Z,5.2
2017-10-26T05:41:23.298Z,5.1
2017-10-26T05:42:25.737Z,5.1
2017-10-26T05:43:28.165Z,5.1
2017-10-26T05:44:30.596Z,5.1
2017-10-26T05:45:33.038Z,5.1
2017-10-26T05:46:35.459Z,5.1
2017-10-26T05:47:38.243Z,5.2
2017-10-26T05:48:40.676Z,5.1
2017-10-26T05:49:43.095Z,5.1
2017-10-26T05:50:45.529Z,5.1
2017-10-26T05:51:47.955Z,5.2
2017-10-26T05:52:50.736Z,5.2
2017-10-26T05:53:53.534Z,5.1
2017-10-26T05:54:55.968Z,5.1
2017-10-26T05:55:58.385Z,5.1
2017-10-26T05:57:00.813Z,5.2
2017-10-26T05:58:03.240Z,5.1
2017-10-26T05:59:05.674Z,5.1
2017-10-26T06:00:08.106Z,5.1
2017-10-26T06:01:10.539Z,5.2
2017-10-26T06:02:12.960Z,5.1
2017-10-26T06:03:15.396Z,5.1
2017-10-26T06:04:18.179Z,5.1
2017-10-26T06:05:20.601Z,5.1
2017-10-26T06:06:23.023Z,5.1
2017-10-26T06:07:25.453Z,5.1
2017-10-26T06:08:27.876Z,5.2
2017-10-26T06:09:30.310Z,5.2
2017-10-26T06:10:32.738Z,5.2
2017-10-26T06:11:35.175Z,5.1
2017-10-26T06:12:37.939Z,5.2
2017-10-26T06:13:40.380Z,5.1
2017-10-26T06:14:42.809Z,5.2
2017-10-26T06:15:45.234Z,5.2
2017-10-26T06:16:47.664Z,5.1
2017-10-26T06:17:50.085Z,5.2
2017-10-26T06:18:52.507Z,5.3
2017-10-26T06:19:54.944Z,5.2
2017-10-26T06:20:57.360Z,5.1
2017-10-26T06:22:00.156Z,5.2
2017-10-26T06:23:02.589Z,5.1
2017-10-26T06:24:05.009Z,5.1
2017-10-26T06:25:07.440Z,5.1
2017-10-26T06:26:09.873Z,5.1
2017-10-26T06:27:12.297Z,5.1
2017-10-26T06:28:14.729Z,5.1
2017-10-26T06:29:17.512Z,5.1
2017-10-26T06:30:19.940Z,5.2
2017-10-26T06:31:22.380Z,5.1
2017-10-26T06:32:24.804Z,5.2
2017-10-26T06:33:27.230Z,5.1
2017-10-26T06:34:29.660Z,5.2
2017-10-26T06:35:32.083Z,5.1
2017-10-26T06:36:34.518Z,5
2017-10-26T06:37:36.934Z,5.1
2017-10-26T06:38:39.381Z,5.2
2017-10-26T06:39:41.800Z,5.1
2017-10-26T06:40:44.223Z,5.1
2017-10-26T06:41:46.656Z,5.1
2017-10-26T06:42:49.077Z,5.1
2017-10-26T06:43:51.510Z,5.1
2017-10-26T06:44:53.948Z,5.1
2017-10-26T06:45:56.720Z,5.1
2017-10-26T06:46:59.147Z,5.2
2017-10-26T06:48:01.584Z,5.2
2017-10-26T06:49:04.002Z,5.2
2017-10-26T06:50:41.534Z,5.1
2017-10-26T06:51:43.912Z,5.1
2017-10-26T06:52:46.291Z,5.1
2017-10-26T06:53:48.670Z,5.1
2017-10-26T06:54:51.046Z,5.1
2017-10-26T06:55:53.426Z,5.1
2017-10-26T06:56:56.150Z,5.1
2017-10-26T06:57:58.518Z,5.1
2017-10-26T06:59:00.894Z,5.2
2017-10-26T07:00:03.273Z,5.1
2017-10-26T07:01:05.645Z,5.1
2017-10-26T07:02:08.374Z,5.1
2017-10-26T07:03:10.749Z,5.1
2017-10-26T07:04:13.124Z,5.2
2017-10-26T07:05:15.498Z,5.2
2017-10-26T07:06:17.886Z,5.1
2017-10-26T07:07:20.249Z,5.1
2017-10-26T07:08:22.634Z,5.2
2017-10-26T07:09:25.007Z,5.1
2017-10-26T07:10:27.374Z,5.1
2017-10-26T07:11:29.749Z,5.1
2017-10-26T07:12:32.130Z,5.1
2017-10-26T07:13:34.500Z,5.2
2017-10-26T07:14:37.225Z,5.1
2017-10-26T07:15:39.595Z,5.2
2017-10-26T07:16:41.987Z,5.1
2017-10-26T07:17:44.361Z,5.1
2017-10-26T07:18:46.745Z,5.1
2017-10-26T07:19:49.110Z,5.1
2017-10-26T07:20:51.863Z,5.1
2017-10-26T07:21:54.248Z,5.1
2017-10-26T07:22:56.618Z,5.1
2017-10-26T07:23:59.360Z,5.1
2017-10-26T07:25:01.734Z,5.1
2017-10-26T07:26:04.115Z,5.2
2017-10-26T07:27:06.486Z,5.1
2017-10-26T07:28:09.231Z,5.1
2017-10-26T07:29:11.599Z,5.1
2017-10-26T07:30:14.340Z,5.2
2017-10-26T07:31:16.711Z,5.1
2017-10-26T07:32:19.088Z,5.1
2017-10-26T07:33:21.469Z,5.1
2017-10-26T07:34:23.846Z,5.1
2017-10-26T07:35:26.228Z,5.1
2017-10-26T07:36:28.601Z,5.1
2017-10-26T07:37:30.974Z,5.1
2017-10-26T07:38:33.350Z,5.1
2017-10-26T07:39:35.716Z,5.1
2017-10-26T07:40:38.090Z,5.1
2017-10-26T07:41:40.459Z,5.1
2017-10-26T07:42:43.185Z,5.1
2017-10-26T07:43:45.563Z,5.1
2017-10-26T07:44:48.279Z,5.1
2017-10-26T07:45:50.664Z,5.1
2017-10-26T07:46:53.050Z,5.1
2017-10-26T07:47:55.419Z,5.1
2017-10-26T07:48:58.153Z,5.1
2017-10-26T07:50:00.523Z,5.1
2017-10-26T07:51:02.902Z,5.1
2017-10-26T07:52:05.277Z,5.1
2017-10-26T07:53:07.654Z,5.1
2017-10-26T07:54:10.032Z,5.1
2017-10-26T07:55:12.416Z,5.2
2017-10-26T07:56:14.789Z,5.1
2017-10-26T07:57:17.155Z,5.1
2017-10-26T07:58:19.550Z,5.1
2017-10-26T07:59:22.269Z,5.1
2017-10-26T08:00:24.647Z,5.1
2017-10-26T08:01:27.028Z,5.2
2017-10-26T08:02:29.392Z,5.1
2017-10-26T08:03:31.773Z,5.1
2017-10-26T08:04:34.498Z,5.1
2017-10-26T08:05:36.870Z,5.1
2017-10-26T08:06:39.241Z,5.1
2017-10-26T08:07:41.620Z,5.1
2017-10-26T08:08:43.992Z,5.1
2017-10-26T08:09:46.378Z,5.2
2017-10-26T08:10:48.741Z,5.1
2017-10-26T08:11:51.114Z,5.2
2017-10-26T08:12:53.492Z,5.1
2017-10-26T08:13:55.868Z,5.1
2017-10-26T08:14:58.250Z,5.2
2017-10-26T08:16:00.634Z,5.1
2017-10-26T08:17:03.004Z,5.1
2017-10-26T08:18:05.390Z,5.1
2017-10-26T08:19:07.765Z,5.2
2017-10-26T08:20:10.140Z,5.3
2017-10-26T08:21:12.855Z,5.1
2017-10-26T08:22:15.234Z,5.2
2017-10-26T08:23:17.603Z,5.2
2017-10-26T08:24:19.980Z,5.2
2017-10-26T08:25:22.352Z,5.2
2017-10-26T08:26:24.729Z,5.2
2017-10-26T08:27:27.092Z,5.2
2017-10-26T08:28:29.474Z,5.2
2017-10-26T08:29:31.846Z,5.2
2017-10-26T08:30:34.229Z,5.2
2017-10-26T08:31:36.610Z,5.2
2017-10-26T08:32:38.986Z,5.1
2017-10-26T08:33:41.352Z,5.3
2017-10-26T08:34:43.735Z,5.2
2017-10-26T08:35:46.112Z,5.2
2017-10-26T08:36:48.495Z,5.2
2017-10-26T08:37:51.231Z,5.3
2017-10-26T08:38:53.603Z,5.2
2017-10-26T08:39:55.981Z,5.2
2017-10-26T08:40:58.365Z,5.2
2017-10-26T08:42:00.743Z,5.2
2017-10-26T08:43:03.117Z,5.2
2017-10-26T08:44:05.505Z,5.2
2017-10-26T08:45:07.867Z,5.2
2017-10-26T08:46:10.246Z,5.2
2017-10-26T08:47:12.622Z,5.2
2017-10-26T08:48:14.985Z,5.2
2017-10-26T08:49:17.708Z,5.2
2017-10-26T08:50:20.087Z,5.2
2017-10-26T08:51:22.458Z,5.2
2017-10-26T08:52:24.841Z,5.2
2017-10-26T08:53:27.211Z,5.2
2017-10-26T08:54:29.582Z,5.2
2017-10-26T08:55:31.965Z,5.2
2017-10-26T08:56:34.348Z,5.2
2017-10-26T08:57:36.724Z,5.2
2017-10-26T08:58:39.105Z,5.2
2017-10-26T08:59:41.485Z,5.2
2017-10-26T09:00:43.858Z,5.2
2017-10-26T09:01:46.251Z,5.3
2017-10-26T09:02:48.624Z,5.2
2017-10-26T09:03:50.992Z,5.2
2017-10-26T09:04:53.374Z,5.2
2017-10-26T09:05:55.748Z,5.3
2017-10-26T09:06:58.133Z,5.2
2017-10-26T09:08:00.500Z,5.3
2017-10-26T09:09:02.887Z,5.3
2017-10-26T09:10:05.259Z,5.2
2017-10-26T09:11:07.630Z,5.2
2017-10-26T09:12:10.012Z,5.2
2017-10-26T09:13:12.389Z,5.2
2017-10-26T09:14:15.111Z,5.3
2017-10-26T09:15:17.489Z,5.3
2017-10-26T09:16:19.857Z,5.3
2017-10-26T09:17:22.228Z,5.3
2017-10-26T09:18:24.618Z,5.2
2017-10-26T09:19:26.992Z,5.3
2017-10-26T09:20:29.367Z,5.3
2017-10-26T09:21:31.750Z,5.3
2017-10-26T09:22:34.125Z,5.3
2017-10-26T09:23:36.506Z,5.3
2017-10-26T09:24:38.879Z,5.3
2017-10-26T09:25:41.250Z,5.3
2017-10-26T09:26:44.004Z,5.3
2017-10-26T09:27:46.389Z,5.3
2017-10-26T09:28:49.122Z,5.3
2017-10-26T09:29:51.493Z,5.3
2017-10-26T09:30:54.225Z,5.3
2017-10-26T09:31:56.599Z,5.3
2017-10-26T09:32:59.329Z,5.4
2017-10-26T09:34:01.712Z,5.3
2017-10-26T09:35:04.082Z,5.3
2017-10-26T09:36:06.470Z,5.3
2017-10-26T09:37:08.851Z,5.3
2017-10-26T09:38:11.231Z,5.3
2017-10-26T09:39:13.609Z,5.4
2017-10-26T09:40:15.992Z,5.3
2017-10-26T09:41:18.375Z,5.3
2017-10-26T09:42:20.734Z,5.3
2017-10-26T09:43:23.121Z,5.3
2017-10-26T09:44:25.854Z,5.3
2017-10-26T09:45:28.227Z,5.3
2017-10-26T09:46:30.608Z,5.3
2017-10-26T09:47:32.990Z,5.3
2017-10-26T09:48:35.362Z,5.4
2017-10-26T09:49:37.748Z,5.4
2017-10-26T09:50:40.122Z,5.3
2017-10-26T09:51:42.511Z,5.3
2017-10-26T09:52:44.892Z,5.3
2017-10-26T09:53:47.272Z,5.4
2017-10-26T09:54:49.652Z,5.4
2017-10-26T09:55:52.035Z,5.4
2017-10-26T09:56:54.406Z,5.4
2017-10-26T09:57:56.784Z,5.4
2017-10-26T09:58:59.513Z,5.3
2017-10-26T10:00:02.090Z,5.4
2017-10-26T10:01:04.472Z,5.4
2017-10-26T10:02:06.853Z,5.4
2017-10-26T10:03:09.233Z,5.4
2017-10-26T10:04:11.601Z,5.3
2017-10-26T10:05:13.986Z,5.4
2017-10-26T10:06:16.360Z,5.4
2017-10-26T10:07:18.737Z,5.4
2017-10-26T10:08:21.477Z,5.3
2017-10-26T10:09:23.854Z,5.4
2017-10-26T10:10:26.220Z,5.3
2017-10-26T10:11:28.600Z,5.4
2017-10-26T10:12:30.974Z,5.3
2017-10-26T10:13:33.729Z,5.3
2017-10-26T10:14:36.107Z,5.4
2017-10-26T10:15:38.843Z,5.4
2017-10-26T10:16:41.221Z,5.4
2017-10-26T10:17:43.604Z,5.4
2017-10-26T10:18:45.977Z,5.3
2017-10-26T10:19:48.352Z,5.3
2017-10-26T10:20:50.726Z,5.3
2017-10-26T10:21:53.106Z,5.4
2017-10-26T10:22:55.480Z,5.4
2017-10-26T10:23:58.315Z,5.4
2017-10-26T10:25:00.618Z,5.4
2017-10-26T10:26:03.002Z,5.4
2017-10-26T10:27:05.383Z,5.4
2017-10-26T10:28:07.763Z,5.4
2017-10-26T10:29:10.149Z,5.4
2017-10-26T10:30:12.526Z,5.4
2017-10-26T10:31:15.244Z,5.4
2017-10-26T10:32:17.637Z,5.4
2017-10-26T10:33:20.008Z,5.4
2017-10-26T10:34:22.382Z,5.4
2017-10-26T10:35:24.764Z,5.4
2017-10-26T10:36:27.139Z,5.4
2017-10-26T10:37:29.520Z,5.5
2017-10-26T10:38:31.907Z,5.4
2017-10-26T10:39:34.632Z,5.4
2017-10-26T10:40:37.015Z,5.4
2017-10-26T10:41:39.381Z,5.4
2017-10-26T10:42:41.772Z,5.4
2017-10-26T10:43:44.150Z,5.4
2017-10-26T10:44:46.529Z,5.4
2017-10-26T10:45:48.914Z,5.5
2017-10-26T10:46:51.290Z,5.4
2017-10-26T10:47:53.663Z,5.4
2017-10-26T10:48:56.407Z,5.4
2017-10-26T10:49:58.780Z,5.4
2017-10-26T10:51:01.153Z,5.4
2017-10-26T10:52:03.538Z,5.5
2017-10-26T10:53:05.911Z,5.4
2017-10-26T10:54:08.286Z,5.5
2017-10-26T10:55:10.668Z,5.4
2017-10-26T10:56:13.030Z,5.5
2017-10-26T10:57:15.411Z,5.4
2017-10-26T10:58:18.136Z,5.4
2017-10-26T10:59:20.518Z,5.4
2017-10-26T11:00:22.899Z,5.4
2017-10-26T11:01:25.282Z,5.4
2017-10-26T11:02:28.007Z,5.4
2017-10-26T11:03:30.395Z,5.4
2017-10-26T11:04:32.773Z,5.5
2017-10-26T11:05:35.146Z,5.4
2017-10-26T11:06:37.519Z,5.4
2017-10-26T11:07:40.622Z,5.5
2017-10-26T11:08:42.994Z,5.4
2017-10-26T11:09:45.371Z,5.4
2017-10-26T11:10:47.746Z,5.5
2017-10-26T11:11:50.131Z,5.5
2017-10-26T11:12:52.513Z,5.5
2017-10-26T11:13:54.898Z,5.5
2017-10-26T11:14:57.259Z,5.5
2017-10-26T11:15:59.637Z,5.4
2017-10-26T11:17:02.018Z,5.4
2017-10-26T11:18:04.391Z,5.4
2017-10-26T11:19:06.768Z,5.5
2017-10-26T11:20:09.141Z,5.5
2017-10-26T11:21:11.906Z,5.4
2017-10-26T11:22:14.637Z,5.4
2017-10-26T11:23:17.013Z,5.5
2017-10-26T11:24:19.380Z,5.5
2017-10-26T11:25:21.754Z,5.4
2017-10-26T11:26:24.139Z,5.5
2017-10-26T11:27:26.520Z,5.5
2017-10-26T11:28:28.900Z,5.5
2017-10-26T11:29:31.266Z,5.5
2017-10-26T11:30:33.652Z,5.5
2017-10-26T11:31:36.060Z,5.5
2017-10-26T11:32:38.423Z,5.5
2017-10-26T11:33:40.799Z,5.5
2017-10-26T11:34:43.174Z,5.5
2017-10-26T11:35:45.548Z,5.6
2017-10-26T11:36:47.935Z,5.5
2017-10-26T11:37:50.321Z,5.6
2017-10-26T11:38:52.697Z,5.6
2017-10-26T11:39:55.087Z,5.6
2017-10-26T11:40:58.156Z,5.6
2017-10-26T11:42:00.552Z,5.5
2017-10-26T11:43:02.925Z,5.6
2017-10-26T11:44:05.310Z,5.6
2017-10-26T11:45:08.097Z,5.6
2017-10-26T11:46:10.460Z,5.6
2017-10-26T11:47:12.830Z,5.6
2017-10-26T11:48:15.214Z,5.6
2017-10-26T11:49:17.597Z,5.6
2017-10-26T11:50:19.992Z,5.6
2017-10-26T11:51:22.394Z,5.7
2017-10-26T11:52:24.770Z,5.6
2017-10-26T11:53:27.152Z,5.6
2017-10-26T11:54:29.532Z,5.6
2017-10-26T11:55:32.259Z,5.7
2017-10-26T11:56:34.648Z,5.6
2017-10-26T11:57:37.026Z,5.6
2017-10-26T11:58:39.411Z,5.7
2017-10-26T11:59:41.784Z,5.6
2017-10-26T12:00:44.165Z,5.6
2017-10-26T12:01:46.882Z,5.6
2017-10-26T12:02:49.275Z,5.7
2017-10-26T12:03:51.645Z,5.7
2017-10-26T12:04:54.382Z,5.7
2017-10-26T12:05:56.771Z,5.7
2017-10-26T12:06:59.137Z,5.7
2017-10-26T12:08:01.527Z,5.6
2017-10-26T12:09:03.908Z,5.7
2017-10-26T12:10:06.286Z,5.7
2017-10-26T12:11:08.667Z,5.7
2017-10-26T12:12:11.393Z,5.7
2017-10-26T12:13:14.117Z,5.7
2017-10-26T12:14:16.509Z,5.7
2017-10-26T12:15:18.886Z,5.7
2017-10-26T12:16:21.258Z,5.7
2017-10-26T12:17:23.638Z,5.7
2017-10-26T12:18:26.022Z,5.7
2017-10-26T12:19:28.410Z,5.7
2017-10-26T12:20:31.162Z,5.6
2017-10-26T12:21:33.891Z,5.6
2017-10-26T12:22:36.276Z,5.7
2017-10-26T12:23:38.659Z,5.6
2017-10-26T12:24:41.042Z,5.7
2017-10-26T12:25:43.425Z,5.7
2017-10-26T12:26:45.803Z,5.6
2017-10-26T12:27:48.184Z,5.7
2017-10-26T12:28:50.561Z,5.6
2017-10-26T12:29:52.932Z,5.6
2017-10-26T12:30:55.659Z,5.7
2017-10-26T12:31:58.033Z,5.6
2017-10-26T12:33:00.449Z,5.7
2017-10-26T12:34:02.830Z,5.6
2017-10-26T12:35:05.209Z,5.7
2017-10-26T12:36:07.588Z,5.6
2017-10-26T12:37:09.978Z,5.7
2017-10-26T12:38:12.696Z,5.7
2017-10-26T12:39:15.074Z,5.6
2017-10-26T12:40:17.469Z,5.7
2017-10-26T12:41:19.841Z,5.6
2017-10-26T12:42:22.220Z,5.6
2017-10-26T12:43:24.965Z,5.6
2017-10-26T12:44:27.332Z,5.6
2017-10-26T12:45:29.716Z,5.7
2017-10-26T12:46:32.102Z,5.6
2017-10-26T12:47:34.464Z,5.6
2017-10-26T12:48:36.850Z,5.6
2017-10-26T12:49:39.241Z,5.7
2017-10-26T12:50:41.977Z,5.6
2017-10-26T12:51:44.369Z,5.6
2017-10-26T12:52:46.742Z,5.6
2017-10-26T12:53:49.136Z,5.6
2017-10-26T12:54:51.525Z,5.7
2017-10-26T12:55:53.900Z,5.6
2017-10-26T12:56:56.279Z,5.7
2017-10-26T12:57:58.655Z,5.7
2017-10-26T12:59:01.036Z,5.6
2017-10-26T13:00:03.429Z,5.7
2017-10-26T13:01:05.801Z,5.7
2017-10-26T13:02:08.178Z,5.6
2017-10-26T13:03:10.565Z,5.7
2017-10-26T13:04:12.957Z,5.6
2017-10-26T13:05:15.334Z,5.7
2017-10-26T13:06:17.711Z,5.7
2017-10-26T13:07:20.093Z,5.7
2017-10-26T13:08:22.472Z,5.6
2017-10-26T13:09:24.851Z,5.6
2017-10-26T13:10:27.240Z,5.6
2017-10-26T13:11:29.610Z,5.6
2017-10-26T13:12:31.995Z,5.6
2017-10-26T13:13:34.737Z,5.7
2017-10-26T13:14:37.112Z,5.7
2017-10-26T13:15:39.495Z,5.7
2017-10-26T13:16:41.871Z,5.6
2017-10-26T13:17:44.249Z,5.7
2017-10-26T13:18:46.644Z,5.6
2017-10-26T13:19:49.022Z,5.6
2017-10-26T13:20:51.765Z,5.6
2017-10-26T13:21:54.153Z,5.6
2017-10-26T13:22:56.538Z,5.6
2017-10-26T13:23:58.918Z,5.7
2017-10-26T13:25:01.304Z,5.6
2017-10-26T13:26:03.690Z,5.6
2017-10-26T13:27:06.059Z,5.6
2017-10-26T13:28:09.166Z,5.6
2017-10-26T13:29:11.525Z,5.7
2017-10-26T13:30:13.959Z,5.6
2017-10-26T13:31:16.338Z,5.6
2017-10-26T13:32:18.723Z,5.6
2017-10-26T13:33:21.111Z,5.7
2017-10-26T13:34:23.482Z,5.6
2017-10-26T13:35:25.871Z,5.7
2017-10-26T13:36:28.244Z,5.6
2017-10-26T13:37:30.621Z,5.7
2017-10-26T13:38:33.383Z,5.6
2017-10-26T13:39:35.775Z,5.6
2017-10-26T13:40:38.146Z,5.6
2017-10-26T13:41:40.534Z,5.6
2017-10-26T13:42:42.913Z,5.6
2017-10-26T13:43:45.296Z,5.7
2017-10-26T13:44:47.686Z,5.6
2017-10-26T13:45:50.059Z,5.6
2017-10-26T13:46:52.788Z,5.6
2017-10-26T13:47:55.520Z,5.6
2017-10-26T13:48:57.891Z,5.6
2017-10-26T13:50:00.282Z,5.7
2017-10-26T13:51:02.667Z,5.6
2017-10-26T13:52:05.033Z,5.6
2017-10-26T13:53:07.420Z,5.6
2017-10-26T13:54:09.808Z,5.6
2017-10-26T13:55:12.185Z,5.6
2017-10-26T13:56:14.586Z,5.7
2017-10-26T13:57:16.967Z,5.6
2017-10-26T13:58:19.342Z,5.6
2017-10-26T13:59:21.734Z,5.6
2017-10-26T14:00:24.123Z,5.6
2017-10-26T14:01:26.498Z,5.6
2017-10-26T14:02:28.878Z,5.6
2017-10-26T14:03:31.271Z,5.6
2017-10-26T14:04:33.649Z,5.6
2017-10-26T14:05:36.023Z,5.6
2017-10-26T14:06:38.412Z,5.5
2017-10-26T14:07:40.796Z,5.6
2017-10-26T14:08:43.196Z,5.6
2017-10-26T14:09:45.947Z,5.6
2017-10-26T14:10:48.321Z,5.6
2017-10-26T14:11:50.706Z,5.6
2017-10-26T14:12:53.082Z,5.6
2017-10-26T14:13:55.468Z,5.6
2017-10-26T14:14:57.845Z,5.6
2017-10-26T14:16:00.245Z,5.6
2017-10-26T14:17:02.616Z,5.6
2017-10-26T14:18:05.370Z,5.6
2017-10-26T14:19:08.078Z,5.5
2017-10-26T14:20:10.453Z,5.6
2017-10-26T14:21:12.835Z,5.5
2017-10-26T14:22:15.211Z,5.6
2017-10-26T14:23:17.605Z,5.5
2017-10-26T14:24:19.977Z,5.5
2017-10-26T14:25:23.057Z,5.6
2017-10-26T14:26:25.800Z,5.5
2017-10-26T14:27:28.190Z,5.5
2017-10-26T14:28:30.569Z,5.5